Time;durP1;ratioP1;P1;durP2;ratioP2;P2;SDS_P1;SDS_P2;PMS_P1;PMS_P2;Temp;Humidity;BMP_temperature;BMP_pressure;BME280_temperature;BME280_humidity;BME280_pressure;Samples;Min_cycle;Max_cycle;Signal;HPM_P1;HPM_P2
2022/04/05 00:01:21;;;;;;;4.88;2.50;;;;;;;11.21;100.00;98217.16;5113098;28;20080;-86
2022/04/05 00:03:48;;;;;;;6.10;2.85;;;;;;;11.21;100.00;98220.59;5075453;28;20138;-83
2022/04/05 00:06:15;;;;;;;3.95;2.75;;;;;;;11.53;100.00;98238.81;5090646;28;20023;-84
2022/04/05 00:08:40;;;;;;;8.35;3.10;;;;;;;11.26;100.00;98227.78;5113333;28;20035;-85
2022/04/05 00:11:06;;;;;;;3.88;2.80;;;;;;;11.20;100.00;98232.13;5095045;28;20411;-84
2022/04/05 00:13:31;;;;;;;6.15;3.10;;;;;;;11.33;100.00;98201.44;5112262;28;20032;-84
2022/04/05 00:15:57;;;;;;;4.88;3.22;;;;;;;11.06;100.00;98199.91;5092359;28;20031;-86
2022/04/05 00:18:22;;;;;;;5.82;3.70;;;;;;;11.29;100.00;98217.66;5091598;28;20031;-87
2022/04/05 00:20:48;;;;;;;5.22;3.17;;;;;;;11.22;100.00;98206.44;5106353;28;20385;-86
2022/04/05 00:23:14;;;;;;;7.32;2.90;;;;;;;11.06;100.00;98228.00;5109439;28;20114;-85
2022/04/05 00:25:41;;;;;;;6.18;3.53;;;;;;;11.28;100.00;98204.72;5109647;28;20042;-86
2022/04/05 00:28:08;;;;;;;5.07;3.53;;;;;;;11.42;100.00;98202.78;5116705;28;20465;-86
2022/04/05 00:30:34;;;;;;;6.22;3.20;;;;;;;11.43;100.00;98217.50;5115244;28;20157;-86
2022/04/05 00:33:00;;;;;;;8.30;3.55;;;;;;;11.51;100.00;98214.56;5114161;28;20517;-85
2022/04/05 00:35:25;;;;;;;11.02;3.75;;;;;;;11.73;100.00;98206.22;5104954;28;20020;-86
2022/04/05 00:37:54;;;;;;;4.60;2.85;;;;;;;11.40;100.00;98212.69;5105498;28;20428;-85
2022/04/05 00:40:20;;;;;;;5.10;2.60;;;;;;;11.24;100.00;98198.31;5108649;28;20030;-84
2022/04/05 00:42:45;;;;;;;4.45;2.65;;;;;;;11.43;100.00;98201.75;5105857;28;20027;-86
2022/04/05 00:45:15;;;;;;;4.13;1.88;;;;;;;11.14;100.00;98217.22;5105821;28;20035;-86
2022/04/05 00:47:49;;;;;;;4.43;2.53;;;;;;;11.65;100.00;98214.41;5088936;28;20039;-84
2022/04/05 00:50:19;;;;;;;5.72;3.15;;;;;;;11.57;100.00;98220.78;5102612;28;20439;-84
2022/04/05 00:52:45;;;;;;;4.45;2.60;;;;;;;11.58;100.00;98215.28;5106762;28;20028;-84
2022/04/05 00:55:11;;;;;;;7.40;3.17;;;;;;;11.43;100.00;98196.50;5116844;28;20045;-86
2022/04/05 00:57:37;;;;;;;6.68;3.20;;;;;;;11.55;100.00;98189.44;5114470;28;20116;-85
2022/04/05 01:00:08;;;;;;;4.68;3.17;;;;;;;11.25;100.00;98178.91;5112137;28;20024;-84
2022/04/05 01:02:38;;;;;;;6.03;3.42;;;;;;;11.47;100.00;98194.22;5110050;28;20026;-88
2022/04/05 01:05:06;;;;;;;5.85;3.70;;;;;;;11.44;100.00;98208.59;5105242;28;20481;-85
2022/04/05 01:07:33;;;;;;;6.60;3.50;;;;;;;11.41;100.00;98204.59;5114207;28;20028;-87
2022/04/05 01:09:59;;;;;;;5.95;3.97;;;;;;;11.12;100.00;98201.69;5087087;28;20043;-84
2022/04/05 01:12:25;;;;;;;8.32;3.95;;;;;;;11.16;100.00;98174.97;5110205;28;20078;-84
2022/04/05 01:14:52;;;;;;;6.03;3.58;;;;;;;11.11;100.00;98179.06;5105804;28;20053;-86
2022/04/05 01:17:18;;;;;;;6.18;4.00;;;;;;;11.03;100.00;98213.47;5109910;28;20031;-88
2022/04/05 01:19:48;;;;;;;9.48;4.78;;;;;;;11.17;100.00;98189.72;5118760;28;20341;-87
2022/04/05 01:22:14;;;;;;;8.38;4.28;;;;;;;11.01;100.00;98163.00;5100820;28;20496;-84
2022/04/05 01:24:40;;;;;;;6.90;4.25;;;;;;;10.94;100.00;98163.06;5109120;28;20024;-85
2022/04/05 01:27:08;;;;;;;5.65;3.25;;;;;;;11.07;100.00;98177.88;5109934;28;20028;-85
2022/04/05 01:29:34;;;;;;;6.80;2.97;;;;;;;11.47;100.00;98181.06;5109253;28;20042;-87
2022/04/05 01:32:03;;;;;;;4.90;2.95;;;;;;;11.39;100.00;98205.81;5089644;28;20023;-87
2022/04/05 01:34:32;;;;;;;4.63;2.53;;;;;;;10.90;100.00;98156.66;5100988;28;20508;-87
2022/04/05 01:37:00;;;;;;;8.95;3.42;;;;;;;11.22;100.00;98174.91;5088821;28;20107;-87
2022/04/05 01:39:28;;;;;;;4.47;2.92;;;;;;;10.99;100.00;98159.81;5085840;28;20432;-85
2022/04/05 01:41:57;;;;;;;3.83;2.92;;;;;;;10.81;100.00;98161.41;5107567;28;20676;-85
2022/04/05 01:44:24;;;;;;;8.18;2.50;;;;;;;10.96;100.00;98160.25;5085399;28;20024;-87
2022/04/05 01:46:50;;;;;;;3.15;2.50;;;;;;;10.95;100.00;98156.00;5113767;28;20038;-86
2022/04/05 01:49:16;;;;;;;4.60;2.40;;;;;;;11.17;100.00;98160.81;5105107;28;20024;-88
2022/04/05 01:51:43;;;;;;;6.50;2.28;;;;;;;11.04;100.00;98154.69;5109553;28;20043;-85
2022/04/05 01:54:11;;;;;;;8.60;2.17;;;;;;;11.15;100.00;98184.66;5104718;28;20058;-85
2022/04/05 01:56:50;;;;;;;2.40;1.73;;;;;;;11.16;100.00;98167.88;5108343;28;20083;-84
2022/04/05 01:59:19;;;;;;;5.28;1.90;;;;;;;11.42;100.00;98172.03;5088636;28;20028;-85
2022/04/05 02:01:45;;;;;;;3.05;1.95;;;;;;;11.26;100.00;98176.06;5116101;28;20031;-83
2022/04/05 02:04:12;;;;;;;4.78;1.75;;;;;;;11.10;100.00;98184.53;5094704;28;20035;-86
2022/04/05 02:06:40;;;;;;;4.95;1.63;;;;;;;11.10;100.00;98174.03;5112142;28;20069;-85
2022/04/05 02:09:06;;;;;;;3.42;1.60;;;;;;;11.14;100.00;98162.06;5091361;28;20020;-85
2022/04/05 02:11:32;;;;;;;3.05;1.48;;;;;;;10.86;100.00;98171.25;5087549;28;20023;-86
2022/04/05 02:13:58;;;;;;;4.03;2.03;;;;;;;11.03;100.00;98186.44;5107766;28;20032;-85
2022/04/05 02:16:25;;;;;;;4.55;1.40;;;;;;;11.22;100.00;98174.91;5112727;28;20173;-85
2022/04/05 02:18:50;;;;;;;4.05;1.77;;;;;;;11.04;100.00;98154.69;5110245;28;20040;-86
2022/04/05 02:21:18;;;;;;;3.63;1.70;;;;;;;10.99;100.00;98168.47;5108365;28;20049;-87
2022/04/05 02:23:44;;;;;;;3.75;1.73;;;;;;;11.21;100.00;98175.13;5109039;28;20020;-85
2022/04/05 02:26:11;;;;;;;3.05;1.60;;;;;;;11.00;100.00;98187.66;5092640;28;20028;-84
2022/04/05 02:28:37;;;;;;;9.20;2.10;;;;;;;10.92;100.00;98178.25;5109005;28;20545;-86
2022/04/05 02:31:03;;;;;;;4.85;1.80;;;;;;;10.95;100.00;98195.41;5094700;28;20118;-85
2022/04/05 02:33:28;;;;;;;3.78;1.95;;;;;;;10.81;100.00;98221.00;5112683;28;20076;-85
2022/04/05 02:35:54;;;;;;;4.70;2.53;;;;;;;10.78;100.00;98189.88;5110352;28;20412;-85
2022/04/05 02:38:19;;;;;;;9.73;2.97;;;;;;;10.75;100.00;98190.34;5104586;28;20032;-83
2022/04/05 02:40:45;;;;;;;8.38;3.15;;;;;;;10.70;100.00;98198.84;5106017;28;20035;-84
2022/04/05 02:43:11;;;;;;;7.15;3.42;;;;;;;11.14;100.00;98207.53;5110263;28;20031;-85
2022/04/05 02:45:37;;;;;;;7.47;3.97;;;;;;;10.91;100.00;98213.41;5106499;28;20031;-83
2022/04/05 02:48:03;;;;;;;8.15;4.55;;;;;;;11.19;100.00;98195.53;5086343;28;20514;-84
2022/04/05 02:50:29;;;;;;;7.53;3.92;;;;;;;11.24;100.00;98164.16;5102163;28;20067;-84
2022/04/05 02:52:55;;;;;;;12.00;4.28;;;;;;;11.17;100.00;98182.63;5092107;28;20028;-83
2022/04/05 02:55:21;;;;;;;14.18;4.90;;;;;;;10.96;100.00;98200.41;5099010;28;20031;-83
2022/04/05 02:57:47;;;;;;;12.68;4.55;;;;;;;10.90;100.00;98188.16;5115648;28;20028;-85
2022/04/05 03:00:17;;;;;;;10.55;4.32;;;;;;;11.01;100.00;98194.53;5121982;28;20104;-83
2022/04/05 03:02:43;;;;;;;21.30;5.20;;;;;;;11.00;100.00;98200.78;5124561;28;20095;-86
2022/04/05 03:05:10;;;;;;;11.63;4.50;;;;;;;10.76;100.00;98191.94;5111775;28;20141;-84
2022/04/05 03:07:37;;;;;;;9.88;4.53;;;;;;;11.21;100.00;98188.25;5108875;28;20051;-84
2022/04/05 03:10:08;;;;;;;11.98;5.53;;;;;;;11.41;100.00;98195.91;5108342;28;20032;-85
2022/04/05 03:12:37;;;;;;;15.60;5.45;;;;;;;11.22;100.00;98193.28;5084788;28;20121;-84
2022/04/05 03:15:05;;;;;;;15.40;5.30;;;;;;;11.25;100.00;98195.47;5118127;28;20032;-84
2022/04/05 03:17:32;;;;;;;13.75;5.43;;;;;;;10.96;100.00;98187.28;5121046;28;20093;-85
2022/04/05 03:19:59;;;;;;;15.38;5.32;;;;;;;10.98;100.00;98185.25;5121286;28;20035;-83
2022/04/05 03:22:25;;;;;;;15.88;5.75;;;;;;;11.09;100.00;98191.59;5111816;28;20508;-85
2022/04/05 03:24:51;;;;;;;20.33;5.47;;;;;;;11.23;100.00;98149.44;5122947;28;20580;-86
2022/04/05 03:27:17;;;;;;;13.80;5.18;;;;;;;11.07;100.00;98150.84;5110499;28;20031;-85
2022/04/05 03:29:43;;;;;;;13.57;5.85;;;;;;;11.12;100.00;98178.06;5116953;28;20035;-85
2022/04/05 03:32:11;;;;;;;19.27;4.90;;;;;;;10.92;100.00;98165.13;5111018;28;20032;-84
2022/04/05 03:34:39;;;;;;;19.70;5.63;;;;;;;10.82;100.00;98143.84;5116140;28;20063;-84
2022/04/05 03:37:05;;;;;;;13.43;5.28;;;;;;;10.93;100.00;98156.22;5106212;28;20028;-86
2022/04/05 03:39:30;;;;;;;13.82;4.68;;;;;;;10.86;100.00;98161.53;5111482;28;20388;-86
2022/04/05 03:41:57;;;;;;;11.70;4.30;;;;;;;10.66;100.00;98166.19;5111128;28;20031;-83
2022/04/05 03:44:24;;;;;;;11.88;4.28;;;;;;;10.59;100.00;98166.25;5105034;28;20040;-84
2022/04/05 03:46:50;;;;;;;16.73;4.70;;;;;;;10.91;100.00;98155.63;5113603;28;20397;-84
2022/04/05 03:49:16;;;;;;;13.85;4.30;;;;;;;11.12;100.00;98150.97;5103500;28;20365;-84
2022/04/05 03:51:42;;;;;;;12.40;4.03;;;;;;;10.78;100.00;98168.88;5107008;28;20085;-84
2022/04/05 03:54:08;;;;;;;15.38;4.63;;;;;;;10.78;100.00;98159.22;5108223;28;20020;-82
2022/04/05 03:56:34;;;;;;;11.75;3.70;;;;;;;10.81;100.00;98165.84;5108327;28;20028;-85
2022/04/05 03:59:00;;;;;;;11.35;4.35;;;;;;;10.76;100.00;98166.50;5089755;28;20048;-82
2022/04/05 04:01:26;;;;;;;11.50;4.95;;;;;;;10.69;100.00;98166.56;5111607;28;20024;-83
2022/04/05 04:03:51;;;;;;;11.90;4.88;;;;;;;10.74;100.00;98146.72;5108597;28;20032;-83
2022/04/05 04:06:18;;;;;;;14.88;5.60;;;;;;;10.95;100.00;98156.81;5099974;28;20035;-83
2022/04/05 04:08:43;;;;;;;15.65;4.38;;;;;;;10.90;100.00;98135.66;5104394;28;20024;-84
2022/04/05 04:11:10;;;;;;;10.05;4.30;;;;;;;11.05;100.00;98153.66;5104482;28;20081;-83
2022/04/05 04:13:46;;;;;;;14.45;4.35;;;;;;;11.00;100.00;98145.66;5084307;28;20024;-84
2022/04/05 04:16:11;;;;;;;8.68;3.50;;;;;;;10.64;100.00;98148.03;5085684;28;20039;-84
2022/04/05 04:18:37;;;;;;;5.28;2.88;;;;;;;10.89;100.00;98159.50;5088232;28;20032;-84
2022/04/05 04:21:03;;;;;;;8.60;2.95;;;;;;;10.86;100.00;98150.25;5106845;28;20070;-84
2022/04/05 04:23:29;;;;;;;8.65;3.13;;;;;;;11.05;100.00;98156.28;5103475;28;20032;-84
2022/04/05 04:25:54;;;;;;;6.18;2.50;;;;;;;10.96;100.00;98128.72;5095660;28;20038;-84
2022/04/05 04:28:20;;;;;;;7.05;2.10;;;;;;;10.67;100.00;98155.47;5111740;28;20032;-84
2022/04/05 04:30:46;;;;;;;3.90;1.90;;;;;;;10.81;100.00;98147.47;5095922;28;20019;-85
2022/04/05 04:33:13;;;;;;;3.95;1.70;;;;;;;10.73;100.00;98135.44;5107843;28;20465;-83
2022/04/05 04:35:40;;;;;;;5.78;1.50;;;;;;;10.54;100.00;98147.72;5104236;28;20070;-84
2022/04/05 04:38:07;;;;;;;2.05;1.40;;;;;;;10.77;100.00;98152.34;5105611;28;20693;-84
2022/04/05 04:40:36;;;;;;;2.58;1.40;;;;;;;10.89;100.00;98144.56;5097570;28;20446;-84
2022/04/05 04:43:02;;;;;;;2.85;1.33;;;;;;;10.54;100.00;98132.78;5097036;28;20086;-85
2022/04/05 04:45:29;;;;;;;3.42;1.20;;;;;;;10.70;100.00;98128.78;5108459;28;20035;-85
2022/04/05 04:47:55;;;;;;;3.60;1.20;;;;;;;11.11;100.00;98144.13;5099398;28;20090;-85
2022/04/05 04:50:21;;;;;;;1.52;0.95;;;;;;;11.16;100.00;98120.59;5104888;28;20489;-85
2022/04/05 04:52:46;;;;;;;2.45;1.05;;;;;;;10.63;100.00;98132.50;5105247;28;20035;-85
2022/04/05 04:55:12;;;;;;;1.38;0.82;;;;;;;10.20;100.00;98127.00;5081971;28;20032;-85
2022/04/05 04:57:38;;;;;;;2.15;1.20;;;;;;;10.61;100.00;98097.81;5114031;28;20160;-83
2022/04/05 05:00:06;;;;;;;1.58;0.70;;;;;;;10.80;100.00;98122.22;5105899;28;20401;-83
2022/04/05 05:02:43;;;;;;;1.92;0.85;;;;;;;10.82;100.00;98123.63;5092894;28;20477;-84
2022/04/05 05:05:09;;;;;;;2.25;1.27;;;;;;;10.93;100.00;98087.97;5105854;28;20035;-83
2022/04/05 05:07:35;;;;;;;2.92;1.35;;;;;;;10.67;100.00;98104.81;5102914;28;20032;-84
2022/04/05 05:10:00;;;;;;;3.95;1.77;;;;;;;10.59;100.00;98099.84;5096168;28;20024;-83
2022/04/05 05:12:26;;;;;;;3.60;1.63;;;;;;;10.64;100.00;98121.81;5104461;28;20542;-82
2022/04/05 05:14:51;;;;;;;4.40;1.65;;;;;;;11.00;100.00;98101.00;5088333;28;20028;-84
2022/04/05 05:17:17;;;;;;;5.85;2.25;;;;;;;10.87;100.00;98109.84;5109724;28;20386;-82
2022/04/05 05:19:42;;;;;;;3.80;1.88;;;;;;;10.55;100.00;98099.47;5099756;28;20466;-82
2022/04/05 05:22:11;;;;;;;4.55;2.33;;;;;;;10.75;100.00;98098.47;5105374;28;20477;-82
2022/04/05 05:24:36;;;;;;;2.83;2.00;;;;;;;10.71;100.00;98098.91;5103578;28;20035;-83
2022/04/05 05:27:02;;;;;;;4.85;1.85;;;;;;;10.84;100.00;98097.16;5097521;28;20034;-83
2022/04/05 05:29:28;;;;;;;3.72;2.10;;;;;;;10.63;100.00;98103.63;5106601;28;20055;-83
2022/04/05 05:31:53;;;;;;;5.03;2.45;;;;;;;10.62;100.00;98081.84;5106398;28;20491;-83
2022/04/05 05:34:22;;;;;;;9.07;3.03;;;;;;;10.60;100.00;98089.13;5107668;28;20028;-83
2022/04/05 05:36:49;;;;;;;6.97;2.92;;;;;;;10.65;100.00;98115.53;5095897;28;20028;-84
2022/04/05 05:39:15;;;;;;;5.35;3.00;;;;;;;10.64;100.00;98106.06;5117389;28;20036;-83
2022/04/05 05:41:40;;;;;;;15.13;4.18;;;;;;;10.23;100.00;98089.84;5103960;28;20023;-84
2022/04/05 05:44:07;;;;;;;12.68;4.68;;;;;;;10.32;100.00;98115.78;5107179;28;20032;-83
2022/04/05 05:46:32;;;;;;;14.20;5.53;;;;;;;10.64;100.00;98106.06;5104975;28;20508;-84
2022/04/05 05:48:58;;;;;;;11.95;5.70;;;;;;;10.56;100.00;98124.69;5112227;28;20038;-84
2022/04/05 05:51:23;;;;;;;12.30;5.65;;;;;;;10.22;100.00;98090.06;5114066;28;20546;-83
2022/04/05 05:53:49;;;;;;;17.00;6.30;;;;;;;10.33;100.00;98083.31;5109403;28;20024;-88
2022/04/05 05:56:14;;;;;;;18.92;6.65;;;;;;;10.75;100.00;98119.47;5095013;28;20031;-87
2022/04/05 05:58:40;;;;;;;12.23;5.53;;;;;;;10.54;100.00;98092.63;5114230;28;20111;-86
2022/04/05 06:01:06;;;;;;;13.90;5.53;;;;;;;10.10;100.00;98072.41;5096942;28;20042;-86
2022/04/05 06:03:32;;;;;;;16.10;5.13;;;;;;;10.09;100.00;98109.34;5112213;28;20031;-85
2022/04/05 06:05:58;;;;;;;19.77;5.68;;;;;;;10.31;100.00;98080.91;5103773;28;20039;-83
2022/04/05 06:08:24;;;;;;;17.13;5.65;;;;;;;10.36;100.00;98094.16;5106135;28;20043;-87
2022/04/05 06:10:49;;;;;;;15.93;6.63;;;;;;;10.48;100.00;98083.00;5095170;28;20023;-86
2022/04/05 06:13:16;;;;;;;10.45;5.05;;;;;;;10.31;100.00;98073.03;5093883;28;20023;-86
2022/04/05 06:15:42;;;;;;;12.90;5.10;;;;;;;10.42;100.00;98095.97;5110842;28;20049;-85
2022/04/05 06:18:07;;;;;;;14.93;5.45;;;;;;;10.48;100.00;98086.41;5107447;28;20495;-84
2022/04/05 06:20:33;;;;;;;14.85;5.35;;;;;;;10.36;100.00;98109.13;5087863;28;20024;-83
2022/04/05 06:23:02;;;;;;;12.85;5.43;;;;;;;10.17;100.00;98085.47;5108750;28;20434;-83
2022/04/05 06:25:33;;;;;;;15.00;5.03;;;;;;;10.17;100.00;98100.41;5107458;28;20091;-84
2022/04/05 06:28:04;;;;;;;19.35;7.38;;;;;;;10.47;100.00;98115.50;5087799;28;20032;-82
2022/04/05 06:30:32;;;;;;;19.30;7.18;;;;;;;10.14;100.00;98102.44;5101238;28;20066;-85
2022/04/05 06:33:05;;;;;;;12.13;5.05;;;;;;;10.28;100.00;98102.31;5107459;28;20032;-84
2022/04/05 06:35:30;;;;;;;14.90;6.22;;;;;;;10.53;100.00;98099.72;5107181;28;20030;-88
2022/04/05 06:37:56;;;;;;;12.02;5.55;;;;;;;10.07;100.00;98080.72;5088448;28;20035;-84
2022/04/05 06:40:22;;;;;;;13.50;5.13;;;;;;;10.63;100.00;98098.38;5104499;28;20050;-84
2022/04/05 06:42:48;;;;;;;10.18;4.18;;;;;;;10.56;100.00;98093.19;5106549;28;20099;-82
2022/04/05 06:45:17;;;;;;;10.05;3.75;;;;;;;10.56;100.00;98098.44;5090276;28;20035;-85
2022/04/05 06:47:43;;;;;;;10.70;3.38;;;;;;;10.29;100.00;98088.19;5106839;28;20035;-85
2022/04/05 06:50:10;;;;;;;6.47;2.92;;;;;;;10.24;100.00;98069.69;5102036;28;20043;-84
2022/04/05 06:52:38;;;;;;;11.15;3.58;;;;;;;10.65;100.00;98083.22;5105450;28;20031;-83
2022/04/05 06:55:08;;;;;;;8.10;3.28;;;;;;;10.72;100.00;98102.34;5105115;28;20016;-83
2022/04/05 06:57:35;;;;;;;6.15;3.13;;;;;;;10.58;100.00;98085.91;5106773;28;20073;-84
2022/04/05 07:00:01;;;;;;;8.57;2.60;;;;;;;10.43;100.00;98089.72;5097961;28;20036;-85
2022/04/05 07:02:27;;;;;;;6.38;2.22;;;;;;;10.47;100.00;98063.03;5105972;28;20028;-83
2022/04/05 07:04:52;;;;;;;6.43;2.17;;;;;;;10.30;100.00;98089.78;5106585;28;20385;-86
2022/04/05 07:07:18;;;;;;;3.75;2.20;;;;;;;10.51;100.00;98077.31;5100992;28;20031;-84
2022/04/05 07:09:47;;;;;;;7.20;2.80;;;;;;;10.29;100.00;98085.56;5096707;28;20081;-84
2022/04/05 07:12:13;;;;;;;8.00;3.78;;;;;;;10.48;100.00;98077.75;5097438;28;20028;-83
2022/04/05 07:14:39;;;;;;;10.57;4.05;;;;;;;10.63;100.00;98066.91;5108393;28;20026;-84
2022/04/05 07:17:05;;;;;;;10.20;4.38;;;;;;;10.33;100.00;98091.19;5110322;28;20027;-85
2022/04/05 07:19:30;;;;;;;12.57;3.33;;;;;;;10.14;100.00;98091.94;5103504;28;20024;-84
2022/04/05 07:21:56;;;;;;;7.50;3.05;;;;;;;10.03;100.00;98082.16;5101232;28;20040;-83
2022/04/05 07:24:22;;;;;;;12.25;3.85;;;;;;;10.28;100.00;98076.09;5085321;28;20036;-83
2022/04/05 07:26:47;;;;;;;13.85;4.60;;;;;;;10.76;100.00;98077.25;5083780;28;20038;-83
2022/04/05 07:29:13;;;;;;;5.85;3.75;;;;;;;10.59;100.00;98082.28;5088242;28;20112;-83
2022/04/05 07:31:39;;;;;;;9.30;3.95;;;;;;;10.29;100.00;98052.25;5099641;28;20019;-84
2022/04/05 07:34:05;;;;;;;14.95;3.95;;;;;;;10.32;100.00;98085.13;5103426;28;20137;-86
2022/04/05 07:36:33;;;;;;;6.55;3.30;;;;;;;10.38;100.00;98076.38;5100667;28;20673;-82
2022/04/05 07:38:59;;;;;;;7.82;3.50;;;;;;;10.95;100.00;98074.63;5099800;28;20044;-82
2022/04/05 07:41:25;;;;;;;8.48;3.15;;;;;;;10.77;100.00;98088.53;5100495;28;20454;-81
2022/04/05 07:43:52;;;;;;;11.50;3.28;;;;;;;11.08;100.00;98089.41;5105693;28;20078;-81
2022/04/05 07:46:18;;;;;;;7.47;3.08;;;;;;;10.59;100.00;98056.03;5101971;28;20496;-83
2022/04/05 07:48:46;;;;;;;10.35;3.35;;;;;;;10.91;100.00;98082.13;5089082;28;20028;-82
2022/04/05 07:51:17;;;;;;;10.65;3.33;;;;;;;11.12;100.00;98072.19;5084402;28;20527;-82
2022/04/05 07:53:43;;;;;;;8.60;3.45;;;;;;;11.11;100.00;98088.97;5105138;28;20030;-81
2022/04/05 07:56:12;;;;;;;11.15;3.50;;;;;;;10.99;100.00;98073.94;5106502;28;20035;-80
2022/04/05 07:58:40;;;;;;;13.35;3.85;;;;;;;11.19;100.00;98064.22;5088201;28;20034;-80
2022/04/05 08:01:05;;;;;;;8.48;3.45;;;;;;;11.33;100.00;98076.16;5103502;28;20150;-80
2022/04/05 08:03:33;;;;;;;8.23;2.97;;;;;;;11.15;100.00;98071.72;5109228;28;20036;-80
2022/04/05 08:05:58;;;;;;;9.32;2.63;;;;;;;11.34;100.00;98069.06;5110859;28;20032;-81
2022/04/05 08:08:24;;;;;;;5.53;2.53;;;;;;;11.60;100.00;98075.78;5104364;28;20440;-82
2022/04/05 08:10:50;;;;;;;4.97;2.45;;;;;;;11.45;100.00;98081.44;5104411;28;20490;-80
2022/04/05 08:13:15;;;;;;;4.45;1.80;;;;;;;11.19;100.00;98070.25;5110268;28;20054;-79
2022/04/05 08:15:43;;;;;;;5.47;1.75;;;;;;;11.15;100.00;98074.34;5103689;28;20075;-82
2022/04/05 08:18:11;;;;;;;7.72;2.35;;;;;;;11.26;100.00;98084.13;5104863;28;20106;-81
2022/04/05 08:20:39;;;;;;;4.38;1.77;;;;;;;11.20;100.00;98071.88;5105494;28;20028;-80
2022/04/05 08:23:06;;;;;;;5.65;2.03;;;;;;;11.59;100.00;98087.31;5086586;28;20349;-80
2022/04/05 08:25:32;;;;;;;5.95;2.20;;;;;;;11.65;100.00;98077.72;5086710;28;20051;-80
2022/04/05 08:27:58;;;;;;;4.55;1.60;;;;;;;12.11;100.00;98078.84;5106391;28;20043;-80
2022/04/05 08:30:25;;;;;;;4.18;1.92;;;;;;;11.73;100.00;98074.75;5080366;28;21129;-79
2022/04/05 08:32:50;;;;;;;4.68;2.00;;;;;;;11.92;100.00;98072.06;5108262;28;20084;-86
2022/04/05 08:35:18;;;;;;;3.40;1.80;;;;;;;12.22;100.00;98079.09;5114187;28;20028;-88
2022/04/05 08:37:45;;;;;;;5.50;1.90;;;;;;;12.32;100.00;98073.25;5119594;28;20019;-88
2022/04/05 08:40:16;;;;;;;6.65;2.00;;;;;;;12.57;100.00;98075.63;5116119;28;20036;-88
2022/04/05 08:42:46;;;;;;;5.63;1.75;;;;;;;12.32;100.00;98092.47;5096771;28;20036;-90
2022/04/05 08:45:13;;;;;;;3.90;1.70;;;;;;;12.34;100.00;98086.97;5103465;28;20057;-88
2022/04/05 08:47:46;;;;;;;5.10;1.73;;;;;;;12.38;100.00;98102.09;5109628;28;20043;-88
2022/04/05 08:50:14;;;;;;;5.50;1.60;;;;;;;12.20;100.00;98113.50;5114374;28;20546;-89
2022/04/05 08:52:40;;;;;;;6.15;2.03;;;;;;;12.41;100.00;98096.38;5114942;28;20171;-87
2022/04/05 08:55:05;;;;;;;2.40;1.30;;;;;;;12.35;100.00;98115.69;5111943;28;20061;-90
2022/04/05 08:57:31;;;;;;;3.53;1.60;;;;;;;12.31;100.00;98119.03;5111194;28;20024;-90
2022/04/05 08:59:57;;;;;;;4.30;1.65;;;;;;;12.38;100.00;98107.34;5091481;28;20466;-88
2022/04/05 09:02:26;;;;;;;1.90;1.35;;;;;;;12.10;100.00;98093.03;5114473;28;20088;-90
2022/04/05 09:04:52;;;;;;;6.18;1.60;;;;;;;12.20;100.00;98104.84;5111246;28;20373;-87
2022/04/05 09:07:23;;;;;;;3.70;1.20;;;;;;;12.48;100.00;98121.75;5113813;28;20103;-89
2022/04/05 09:10:09;;;;;;;3.67;1.45;;;;;;;12.37;100.00;98115.47;5115558;28;20027;-88
2022/04/05 09:12:53;;;;;;;5.07;1.50;;;;;;;12.39;100.00;98108.97;5109107;28;20047;-88
2022/04/05 09:15:18;;;;;;;2.90;1.23;;;;;;;12.36;100.00;98119.91;5114293;28;20370;-87
2022/04/05 09:17:47;;;;;;;4.53;1.40;;;;;;;12.66;100.00;98118.19;5112011;28;20031;-88
2022/04/05 09:20:14;;;;;;;3.25;1.20;;;;;;;12.47;100.00;98120.16;5117211;28;20031;-87
2022/04/05 09:22:39;;;;;;;4.85;1.42;;;;;;;12.21;100.00;98120.38;5114283;28;20044;-88
2022/04/05 09:25:08;;;;;;;4.97;0.98;;;;;;;12.16;100.00;98114.19;5111617;28;20116;-89
2022/04/05 09:27:54;;;;;;;4.60;1.52;;;;;;;12.32;100.00;98128.50;5108461;28;20177;-87
2022/04/05 09:30:27;;;;;;;3.25;1.35;;;;;;;12.13;100.00;98131.25;5108004;28;20046;-90
2022/04/05 09:32:54;;;;;;;;;;;;;;;11.73;100.00;98124.72;5115420;28;20035;-88
2022/04/05 09:35:23;;;;;;;4.97;2.20;;;;;;;11.85;100.00;98125.56;5111956;28;19947;-87
2022/04/05 09:37:48;;;;;;;2.95;1.60;;;;;;;12.14;100.00;98119.69;5119616;28;20106;-87
2022/04/05 09:40:32;;;;;;;5.65;1.70;;;;;;;12.18;100.00;98127.91;5111179;28;20029;-88
2022/04/05 09:43:08;;;;;;;2.67;1.50;;;;;;;12.60;100.00;98135.72;5108929;28;20028;-88
2022/04/05 09:45:42;;;;;;;2.97;1.63;;;;;;;12.73;100.00;98136.50;5109350;28;20036;-86
2022/04/05 09:48:08;;;;;;;3.70;1.60;;;;;;;12.32;100.00;98139.81;5112194;28;20031;-86
2022/04/05 09:50:57;;;;;;;5.72;1.80;;;;;;;12.17;100.00;98136.84;5115334;28;20079;-88
2022/04/05 09:53:23;;;;;;;2.88;1.48;;;;;;;12.20;100.00;98133.78;5108450;28;20068;-87
2022/04/05 09:56:01;;;;;;;3.25;1.52;;;;;;;12.20;100.00;98136.41;5116636;28;20032;-89
2022/04/05 09:58:27;;;;;;;5.97;1.60;;;;;;;11.98;100.00;98147.41;5102272;28;20656;-91
2022/04/05 10:01:05;;;;;;;4.20;1.42;;;;;;;11.92;100.00;98143.06;5119566;28;20032;-90
2022/04/05 10:03:30;;;;;;;7.97;2.10;;;;;;;11.97;100.00;98137.91;5094742;28;20028;-90
2022/04/05 10:05:56;;;;;;;7.95;1.80;;;;;;;11.70;100.00;98125.16;5114805;28;20031;-90
2022/04/05 10:08:22;;;;;;;5.63;1.90;;;;;;;11.98;100.00;98129.00;5117088;28;20028;-88
2022/04/05 10:10:48;;;;;;;7.35;2.05;;;;;;;12.02;100.00;98130.19;5113987;28;20028;-91
2022/04/05 10:13:13;;;;;;;4.68;2.20;;;;;;;12.24;100.00;98114.66;5112930;28;20058;-88
2022/04/05 10:15:41;;;;;;;7.43;2.10;;;;;;;12.19;100.00;98119.00;5114046;28;20044;-88
2022/04/05 10:18:07;;;;;;;9.27;2.60;;;;;;;12.18;100.00;98112.13;5114842;28;20042;-87
2022/04/05 10:20:34;;;;;;;6.40;1.90;;;;;;;12.14;100.00;98107.31;5108450;28;20157;-89
2022/04/05 10:23:02;;;;;;;9.32;2.75;;;;;;;12.35;100.00;98126.22;5107040;28;20035;-86
2022/04/05 10:25:29;;;;;;;5.32;2.35;;;;;;;12.06;100.00;98131.34;5117163;28;20039;-86
2022/04/05 10:27:56;;;;;;;10.43;3.42;;;;;;;12.56;100.00;98114.31;5116417;28;20051;-87
2022/04/05 10:30:30;;;;;;;9.82;2.88;;;;;;;12.91;100.00;98117.91;5110724;28;20039;-79
2022/04/05 10:33:03;;;;;;;9.52;2.88;;;;;;;12.66;100.00;98120.81;5114096;28;20032;-82
2022/04/05 10:35:32;;;;;;;10.52;2.63;;;;;;;12.64;100.00;98121.06;5109095;28;20084;-83
2022/04/05 10:38:13;;;;;;;10.50;2.95;;;;;;;12.02;100.00;98130.19;5103534;28;20032;-83
2022/04/05 10:40:39;;;;;;;14.50;3.80;;;;;;;12.07;100.00;98106.66;5120860;28;20039;-86
2022/04/05 10:43:19;;;;;;;14.30;4.25;;;;;;;12.10;100.00;98119.34;5120915;28;20031;-87
2022/04/05 10:45:45;;;;;;;11.73;3.55;;;;;;;11.94;100.00;98118.16;5101798;28;20058;-83
2022/04/05 10:48:20;;;;;;;10.40;3.03;;;;;;;12.02;100.00;98118.88;5101804;28;20036;-83
2022/04/05 10:51:06;;;;;;;7.45;2.38;;;;;;;11.93;100.00;98113.09;5103821;28;20478;-82
2022/04/05 10:53:36;;;;;;;6.78;2.80;;;;;;;12.28;100.00;98113.19;5115617;28;20024;-83
2022/04/05 10:56:11;;;;;;;9.40;3.30;;;;;;;12.24;100.00;98100.72;5112239;28;20035;-87
2022/04/05 10:59:01;;;;;;;11.63;3.47;;;;;;;12.66;100.00;98103.19;5121253;28;20032;-87
2022/04/05 11:01:37;;;;;;;15.38;3.88;;;;;;;12.87;100.00;98103.63;5119021;28;20023;-86
2022/04/05 11:04:16;;;;;;;17.15;4.47;;;;;;;13.07;100.00;98089.25;5114950;28;20043;-85
2022/04/05 11:07:05;;;;;;;18.23;4.35;;;;;;;13.00;100.00;98103.38;5099016;28;20060;-81
2022/04/05 11:09:35;;;;;;;17.98;3.92;;;;;;;13.33;100.00;98089.72;5103272;28;20494;-86
2022/04/05 11:12:02;;;;;;;12.63;4.03;;;;;;;13.26;100.00;98089.88;5117832;28;20073;-87
2022/04/05 11:14:42;;;;;;;16.13;4.72;;;;;;;13.04;100.00;98081.81;5130333;28;20044;-85
2022/04/05 11:17:14;;;;;;;15.90;4.13;;;;;;;12.91;100.00;98094.22;5112007;28;20032;-86
2022/04/05 11:19:42;;;;;;;17.60;5.65;;;;;;;12.89;100.00;98129.75;5111435;28;20576;-85
2022/04/05 11:22:20;;;;;;;16.67;4.47;;;;;;;12.67;100.00;98077.66;5122181;28;20107;-86
2022/04/05 11:24:55;;;;;;;19.83;5.22;;;;;;;12.78;100.00;98074.22;5111933;28;20032;-86